createdAt,value
2022-11-15T00:01:10.568Z,82.41
2022-11-15T00:03:56.231Z,82.54
2022-11-15T00:06:41.729Z,83.55
2022-11-15T00:09:27.414Z,83.96
2022-11-15T00:12:12.679Z,83.02
2022-11-15T00:14:58.077Z,82.47
2022-11-15T00:17:43.246Z,82.97
2022-11-15T00:20:28.743Z,83.13
2022-11-15T00:23:14.029Z,82.88
2022-11-15T00:25:59.946Z,82.61
2022-11-15T00:28:45.485Z,82.35
2022-11-15T00:31:31.041Z,83.27
2022-11-15T00:34:16.543Z,83.25
2022-11-15T00:37:01.845Z,83.54
2022-11-15T00:39:47.234Z,84.31
2022-11-15T00:42:32.493Z,85.39
2022-11-15T00:45:18.034Z,85.44
2022-11-15T00:48:03.620Z,84.81
2022-11-15T00:50:50.156Z,84.65
2022-11-15T00:53:36.248Z,84.54
2022-11-15T00:56:21.584Z,84.21
2022-11-15T00:59:06.901Z,84.18
2022-11-15T01:01:52.954Z,83.45
2022-11-15T01:04:38.586Z,82.51
2022-11-15T01:07:23.934Z,82.85
2022-11-15T01:10:09.842Z,83.27
2022-11-15T01:12:55.690Z,83.67
2022-11-15T01:15:44.404Z,83.60
2022-11-15T01:18:32.572Z,83.38
2022-11-15T01:21:20.385Z,84.06
2022-11-15T01:24:05.815Z,84.60
2022-11-15T01:26:51.725Z,84.70
2022-11-15T01:29:40.258Z,84.62
2022-11-15T01:32:26.289Z,84.57
2022-11-15T01:35:15.052Z,85.27
2022-11-15T01:38:00.516Z,84.63
2022-11-15T01:40:48.468Z,84.56
2022-11-15T01:43:36.887Z,84.55
2022-11-15T01:46:22.331Z,84.13
2022-11-15T01:49:20.917Z,83.73
2022-11-15T01:52:11.643Z,83.33
2022-11-15T01:55:04.847Z,83.00
2022-11-15T01:57:57.291Z,83.16
2022-11-15T02:00:43.301Z,83.17
2022-11-15T02:03:39.214Z,82.70
2022-11-15T02:06:24.960Z,82.46
2022-11-15T02:09:12.048Z,82.97
2022-11-15T02:11:58.660Z,82.86
2022-11-15T02:14:48.665Z,83.09
2022-11-15T02:18:05.028Z,83.74
2022-11-15T02:21:22.247Z,84.40
2022-11-15T02:24:35.073Z,84.18
2022-11-15T02:27:39.410Z,84.07
2022-11-15T02:30:56.594Z,84.48
2022-11-15T02:33:58.991Z,85.80
2022-11-15T02:37:00.845Z,86.40
2022-11-15T02:39:52.069Z,85.85
2022-11-15T02:43:08.205Z,84.61
2022-11-15T02:46:03.386Z,84.25
2022-11-15T02:48:49.423Z,84.91
2022-11-15T02:51:34.849Z,85.29
2022-11-15T02:54:26.251Z,85.03
2022-11-15T02:57:19.700Z,84.75
2022-11-15T03:00:18.848Z,84.66
2022-11-15T03:03:32.736Z,84.38
2022-11-15T03:06:32.536Z,83.99
2022-11-15T03:09:35.268Z,84.24
2022-11-15T03:12:42.767Z,83.99
2022-11-15T03:15:35.511Z,84.00
2022-11-15T03:18:34.669Z,83.73
2022-11-15T03:21:22.769Z,84.64
2022-11-15T03:24:09.698Z,84.38
2022-11-15T03:26:56.846Z,83.82
2022-11-15T03:29:46.981Z,83.83
2022-11-15T03:32:46.076Z,83.72
2022-11-15T03:35:38.472Z,83.30
2022-11-15T03:38:31.518Z,83.87
2022-11-15T03:41:24.607Z,83.88
2022-11-15T03:44:42.890Z,84.07
2022-11-15T03:47:34.179Z,83.29
2022-11-15T03:50:22.213Z,83.61
2022-11-15T03:53:07.874Z,83.77
2022-11-15T03:55:53.031Z,83.64
2022-11-15T03:58:38.346Z,83.86
2022-11-15T04:01:24.078Z,83.87
2022-11-15T04:04:09.681Z,84.51
2022-11-15T04:06:54.823Z,84.36
2022-11-15T04:10:00.340Z,84.31
2022-11-15T04:12:48.718Z,84.54
2022-11-15T04:15:34.239Z,84.19
2022-11-15T04:18:19.477Z,84.80
2022-11-15T04:21:23.786Z,84.76
2022-11-15T04:24:14.899Z,85.05
2022-11-15T04:27:01.413Z,84.97
2022-11-15T04:29:46.624Z,84.73
2022-11-15T04:32:32.037Z,84.51
2022-11-15T04:35:17.308Z,84.04
2022-11-15T04:38:05.135Z,83.55
2022-11-15T04:40:50.409Z,83.94
2022-11-15T04:43:35.762Z,84.45
2022-11-15T04:46:21.929Z,83.98
2022-11-15T04:49:07.372Z,84.03
2022-11-15T04:51:52.860Z,83.81
2022-11-15T04:54:38.397Z,83.64
2022-11-15T04:57:23.935Z,83.43
2022-11-15T05:00:12.852Z,83.86
2022-11-15T05:03:17.056Z,84.03
2022-11-15T05:06:02.623Z,83.55
2022-11-15T05:08:47.918Z,83.72
2022-11-15T05:11:33.472Z,83.87
2022-11-15T05:14:18.795Z,83.99
2022-11-15T05:17:04.813Z,83.86
2022-11-15T05:19:50.306Z,85.53
2022-11-15T05:22:35.792Z,85.81
2022-11-15T05:25:21.090Z,85.50
2022-11-15T05:28:06.684Z,85.15
2022-11-15T05:30:51.966Z,85.78
2022-11-15T05:33:39.454Z,85.37
2022-11-15T05:36:34.939Z,85.32
2022-11-15T05:39:20.522Z,85.01
2022-11-15T05:42:15.386Z,84.55
2022-11-15T05:45:03.839Z,85.47
2022-11-15T05:47:50.948Z,85.71
2022-11-15T05:50:39.775Z,85.51
2022-11-15T05:53:27.034Z,85.87
2022-11-15T05:56:13.597Z,86.34
2022-11-15T05:59:00.290Z,85.43
2022-11-15T06:01:46.209Z,85.43
2022-11-15T06:04:31.712Z,87.31
2022-11-15T06:07:17.085Z,86.89
2022-11-15T06:10:02.664Z,86.87
2022-11-15T06:12:47.693Z,85.90
2022-11-15T06:15:35.061Z,85.80
2022-11-15T06:18:20.564Z,86.37
2022-11-15T06:21:07.808Z,86.97
2022-11-15T06:23:53.483Z,86.13
2022-11-15T06:26:38.678Z,85.93
2022-11-15T06:29:24.323Z,86.35
2022-11-15T06:32:09.669Z,85.74
2022-11-15T06:34:54.873Z,85.48
2022-11-15T06:37:40.394Z,85.14
2022-11-15T06:40:26.119Z,85.35
2022-11-15T06:43:11.175Z,84.80
2022-11-15T06:45:56.810Z,85.85
2022-11-15T06:48:42.132Z,86.22
2022-11-15T06:51:31.839Z,86.13
2022-11-15T06:54:52.509Z,85.71
2022-11-15T06:58:23.913Z,85.55
2022-11-15T07:01:25.639Z,86.04
2022-11-15T07:04:10.997Z,86.43
2022-11-15T07:06:57.837Z,86.42
2022-11-15T07:09:43.221Z,86.61
2022-11-15T07:12:29.139Z,86.41
2022-11-15T07:15:19.509Z,86.54
2022-11-15T07:18:05.233Z,86.20
2022-11-15T07:20:50.661Z,86.73
2022-11-15T07:23:42.117Z,87.05
2022-11-15T07:26:27.688Z,86.96
2022-11-15T07:29:13.288Z,86.94
2022-11-15T07:31:58.767Z,87.27
2022-11-15T07:34:46.160Z,86.80
2022-11-15T07:37:31.325Z,86.58
2022-11-15T07:40:16.795Z,86.54
2022-11-15T07:43:04.411Z,86.94
2022-11-15T07:45:50.795Z,88.91
2022-11-15T07:48:44.477Z,87.62
2022-11-15T07:51:30.768Z,86.42
2022-11-15T07:54:16.151Z,84.90
2022-11-15T07:57:06.939Z,84.56
2022-11-15T07:59:53.252Z,84.91
2022-11-15T08:02:38.906Z,85.68
2022-11-15T08:05:24.139Z,86.03
2022-11-15T08:08:11.389Z,86.06
2022-11-15T08:10:59.326Z,86.40
2022-11-15T08:13:44.896Z,86.31
2022-11-15T08:16:30.499Z,87.19
2022-11-15T08:19:16.299Z,87.33
2022-11-15T08:22:02.010Z,86.14
2022-11-15T08:24:47.198Z,85.21
2022-11-15T08:27:32.742Z,85.01
2022-11-15T08:30:18.117Z,84.76
2022-11-15T08:33:04.226Z,85.18
2022-11-15T08:35:49.806Z,85.11
2022-11-15T08:38:35.568Z,85.31
2022-11-15T08:41:27.713Z,85.59
2022-11-15T08:44:13.123Z,85.58
2022-11-15T08:46:58.427Z,85.85
2022-11-15T08:49:43.846Z,85.68
2022-11-15T08:52:29.296Z,85.35
2022-11-15T08:55:17.567Z,84.39
2022-11-15T08:58:03.113Z,84.57
2022-11-15T09:00:48.527Z,84.51
2022-11-15T09:03:33.876Z,84.74
2022-11-15T09:06:19.333Z,85.20
2022-11-15T09:09:04.758Z,85.54
2022-11-15T09:11:51.740Z,84.76
2022-11-15T09:14:36.967Z,84.97
2022-11-15T09:17:25.053Z,85.38
2022-11-15T09:20:11.370Z,85.71
2022-11-15T09:23:00.781Z,86.16
2022-11-15T09:25:45.696Z,86.80
2022-11-15T09:31:35.013Z,87.82
2022-11-15T09:34:22.085Z,87.86
2022-11-15T09:37:07.403Z,88.26
2022-11-15T09:39:53.417Z,88.46
2022-11-15T09:43:04.965Z,88.49
2022-11-15T09:45:59.496Z,88.05
2022-11-15T09:49:15.644Z,88.49
2022-11-15T09:51:59.078Z,88.47
2022-11-15T09:54:56.179Z,88.63
2022-11-15T09:57:46.165Z,88.38
2022-11-15T10:00:46.020Z,87.77
2022-11-15T10:03:19.414Z,87.47
2022-11-15T10:05:51.718Z,87.88
2022-11-15T10:08:40.072Z,88.36
2022-11-15T10:11:42.244Z,88.53
2022-11-15T10:14:19.203Z,88.37
2022-11-15T10:17:07.623Z,88.04
2022-11-15T10:20:12.961Z,88.69
2022-11-15T10:22:45.493Z,88.84
2022-11-15T10:25:34.122Z,88.33
2022-11-15T10:28:13.093Z,88.41
2022-11-15T10:30:48.827Z,88.13
2022-11-15T10:33:30.630Z,88.41
2022-11-15T10:36:17.808Z,88.44
2022-11-15T10:38:50.535Z,88.68
2022-11-15T10:41:23.504Z,88.99
2022-11-15T10:44:29.029Z,89.28
2022-11-15T10:46:55.798Z,89.15
2022-11-15T10:49:30.609Z,89.11
2022-11-15T10:52:03.653Z,89.10
2022-11-15T10:55:03.660Z,88.77
2022-11-15T10:57:37.787Z,88.62
2022-11-15T11:00:27.063Z,88.88
2022-11-15T11:02:56.693Z,88.06
2022-11-15T11:05:42.656Z,88.21
2022-11-15T11:08:15.576Z,88.68
2022-11-15T11:11:01.931Z,88.69
2022-11-15T11:13:38.442Z,88.70
2022-11-15T11:16:38.911Z,88.86
2022-11-15T11:19:20.109Z,89.05
2022-11-15T11:22:02.450Z,88.68
2022-11-15T11:24:40.216Z,88.76
2022-11-15T11:27:28.929Z,88.84
2022-11-15T11:30:05.291Z,88.07
2022-11-15T11:32:59.753Z,88.32
2022-11-15T11:35:29.609Z,88.23
2022-11-15T11:38:07.824Z,87.73
2022-11-15T11:40:46.498Z,87.91
2022-11-15T11:43:19.339Z,86.95
2022-11-15T11:45:57.302Z,86.55
2022-11-15T11:48:27.061Z,86.96
2022-11-15T11:51:00.864Z,86.61
2022-11-15T11:53:42.097Z,86.37
2022-11-15T11:56:23.139Z,86.63
2022-11-15T11:58:54.387Z,86.38
2022-11-15T12:01:26.953Z,85.95
2022-11-15T12:03:57.838Z,85.24
2022-11-15T12:06:30.842Z,84.73
2022-11-15T12:09:13.994Z,85.52
2022-11-15T12:12:07.779Z,85.93
2022-11-15T12:14:37.614Z,85.71
2022-11-15T12:17:04.526Z,85.70
2022-11-15T12:19:31.984Z,85.59
2022-11-15T12:22:25.443Z,85.22
2022-11-15T12:25:01.476Z,85.51
2022-11-15T12:27:38.600Z,85.70
2022-11-15T12:30:10.577Z,85.37
2022-11-15T12:32:39.672Z,85.05
2022-11-15T12:35:22.712Z,84.64
2022-11-15T12:37:51.905Z,84.52
2022-11-15T12:40:33.843Z,83.78
2022-11-15T12:43:02.316Z,83.66
2022-11-15T12:45:38.641Z,83.14
2022-11-15T12:48:25.667Z,83.21
2022-11-15T12:50:55.443Z,82.55
2022-11-15T12:53:25.425Z,83.29
2022-11-15T12:56:07.309Z,82.74
2022-11-15T12:58:48.096Z,83.01
2022-11-15T13:01:41.143Z,82.98
2022-11-15T13:04:20.161Z,82.70
2022-11-15T13:06:47.046Z,83.25
2022-11-15T13:09:38.565Z,83.28
2022-11-15T13:12:14.633Z,83.58
2022-11-15T13:14:50.357Z,83.80
2022-11-15T13:17:19.960Z,84.09
2022-11-15T13:19:49.315Z,83.76
2022-11-15T13:22:36.172Z,83.58
2022-11-15T13:25:04.824Z,83.35
2022-11-15T13:27:32.373Z,82.76
2022-11-15T13:29:59.356Z,82.86
2022-11-15T13:32:26.332Z,83.15
2022-11-15T13:34:53.901Z,83.01
2022-11-15T13:37:23.934Z,83.97
2022-11-15T13:39:51.163Z,84.26
2022-11-15T13:42:20.330Z,85.10
2022-11-15T13:44:59.816Z,84.87
2022-11-15T13:47:28.711Z,85.32
2022-11-15T13:49:58.940Z,85.76
2022-11-15T13:52:32.435Z,86.00
2022-11-15T13:55:04.784Z,86.13
2022-11-15T13:57:43.422Z,86.51
2022-11-15T14:00:44.504Z,86.45
2022-11-15T14:03:20.313Z,85.44
2022-11-15T14:06:07.494Z,85.48
2022-11-15T14:08:36.397Z,85.67
2022-11-15T14:11:20.700Z,85.89
2022-11-15T14:14:09.101Z,85.64
2022-11-15T14:16:37.834Z,85.45
2022-11-15T14:19:06.215Z,85.57
2022-11-15T14:21:33.803Z,84.70
2022-11-15T14:24:25.428Z,85.39
2022-11-15T14:26:52.308Z,85.60
2022-11-15T14:29:30.784Z,85.49
2022-11-15T14:32:16.166Z,85.60
2022-11-15T14:34:43.420Z,85.83
2022-11-15T14:37:32.555Z,85.92
2022-11-15T14:39:59.712Z,86.21
2022-11-15T14:42:26.854Z,86.78
2022-11-15T14:44:53.709Z,86.60
2022-11-15T14:47:20.686Z,86.95
2022-11-15T14:49:48.025Z,87.24
2022-11-15T14:52:20.671Z,87.28
2022-11-15T14:54:47.559Z,87.34
2022-11-15T14:57:14.382Z,87.22
2022-11-15T14:59:41.310Z,87.38
2022-11-15T15:02:23.157Z,87.68
2022-11-15T15:04:50.983Z,87.91
2022-11-15T15:07:18.914Z,88.29
2022-11-15T15:09:46.502Z,88.25
2022-11-15T15:12:24.365Z,88.29
2022-11-15T15:14:51.793Z,88.33
2022-11-15T15:17:19.120Z,88.37
2022-11-15T15:19:45.938Z,88.19
2022-11-15T15:22:19.758Z,88.08
2022-11-15T15:24:47.195Z,88.21
2022-11-15T15:27:14.346Z,88.66
2022-11-15T15:29:41.566Z,88.58
2022-11-15T15:32:09.478Z,88.59
2022-11-15T15:34:36.280Z,88.84
2022-11-15T15:37:23.753Z,88.62
2022-11-15T15:39:57.666Z,88.77
2022-11-15T15:42:24.808Z,88.91
2022-11-15T15:44:52.213Z,89.24
2022-11-15T15:47:24.209Z,89.62
2022-11-15T15:49:51.896Z,89.79
2022-11-15T15:52:18.991Z,89.85
2022-11-15T15:54:46.100Z,89.88
2022-11-15T15:57:14.458Z,89.90
2022-11-15T15:59:41.525Z,89.61
2022-11-15T16:02:12.994Z,89.21
2022-11-15T16:04:40.711Z,88.62
2022-11-15T16:07:17.512Z,88.78
2022-11-15T16:10:02.687Z,89.17
2022-11-15T16:12:34.680Z,88.87
2022-11-15T16:15:02.607Z,89.11
2022-11-15T16:17:34.434Z,88.89
2022-11-15T16:20:01.773Z,88.90
2022-11-15T16:22:30.264Z,88.57
2022-11-15T16:24:57.557Z,88.39
2022-11-15T16:27:24.812Z,88.45
2022-11-15T16:29:51.843Z,88.65
2022-11-15T16:32:18.654Z,88.81
2022-11-15T16:34:48.968Z,89.11
2022-11-15T16:37:23.913Z,89.22
2022-11-15T16:39:51.546Z,89.23
2022-11-15T16:42:18.349Z,89.36
2022-11-15T16:44:45.139Z,89.34
2022-11-15T16:47:20.146Z,88.95
2022-11-15T16:49:47.373Z,88.95
2022-11-15T16:52:18.766Z,88.75
2022-11-15T16:54:48.125Z,89.28
2022-11-15T16:57:16.696Z,89.35
2022-11-15T16:59:43.675Z,89.43
2022-11-15T17:02:14.115Z,89.48
2022-11-15T17:04:41.222Z,89.53
2022-11-15T17:07:08.680Z,89.50
2022-11-15T17:09:35.680Z,89.60
2022-11-15T17:12:02.460Z,89.95
2022-11-15T17:14:29.567Z,89.85
2022-11-15T17:16:56.453Z,90.06
2022-11-15T17:19:23.275Z,89.83
2022-11-15T17:21:50.314Z,89.76
2022-11-15T17:24:17.463Z,89.69
2022-11-15T17:26:44.414Z,90.22
2022-11-15T17:29:11.276Z,89.98
2022-11-15T17:31:38.865Z,89.68
2022-11-15T17:34:06.885Z,89.51
2022-11-15T17:36:35.310Z,89.82
2022-11-15T17:39:03.293Z,90.06
2022-11-15T17:41:30.366Z,89.81
2022-11-15T17:43:58.830Z,89.97
2022-11-15T17:46:26.272Z,90.06
2022-11-15T17:48:52.951Z,90.18
2022-11-15T17:51:19.832Z,89.82
2022-11-15T17:53:49.193Z,89.69
2022-11-15T17:56:18.706Z,90.01
2022-11-15T17:58:56.792Z,89.44
2022-11-15T18:01:32.022Z,89.70
2022-11-15T18:04:00.944Z,89.88
2022-11-15T18:06:30.692Z,89.56
2022-11-15T18:08:57.642Z,89.65
2022-11-15T18:11:34.024Z,89.62
2022-11-15T18:14:03.612Z,89.69
2022-11-15T18:16:32.731Z,89.41
2022-11-15T18:19:00.338Z,89.40
2022-11-15T18:21:30.021Z,88.94
2022-11-15T18:23:59.573Z,89.06
2022-11-15T18:26:28.839Z,89.06
2022-11-15T18:29:02.232Z,88.78
2022-11-15T18:31:30.969Z,88.31
2022-11-15T18:33:59.688Z,88.14
2022-11-15T18:36:28.913Z,88.48
2022-11-15T18:39:00.639Z,88.57
2022-11-15T18:41:30.970Z,88.58
2022-11-15T18:44:00.006Z,88.26
2022-11-15T18:46:30.892Z,88.47
2022-11-15T18:49:00.101Z,88.37
2022-11-15T18:51:32.211Z,88.57
2022-11-15T18:54:01.386Z,88.43
2022-11-15T18:56:30.550Z,88.41
2022-11-15T18:58:59.947Z,88.66
2022-11-15T19:01:29.361Z,88.95
2022-11-15T19:03:57.878Z,89.18
2022-11-15T19:06:27.568Z,89.26
2022-11-15T19:08:56.517Z,89.79
2022-11-15T19:11:31.755Z,89.94
2022-11-15T19:14:03.263Z,90.09
2022-11-15T19:16:33.482Z,90.32
2022-11-15T19:19:10.716Z,89.79
2022-11-15T19:21:38.446Z,89.54
2022-11-15T19:24:05.739Z,89.26
2022-11-15T19:26:33.284Z,88.80
2022-11-15T19:29:02.055Z,88.90
2022-11-15T19:31:31.725Z,88.33
2022-11-15T19:34:01.807Z,88.67
2022-11-15T19:36:32.627Z,88.72
2022-11-15T19:39:00.261Z,88.57
2022-11-15T19:41:27.337Z,88.75
2022-11-15T19:43:54.220Z,88.39
2022-11-15T19:46:23.661Z,88.86
2022-11-15T19:48:51.602Z,88.70
2022-11-15T19:51:24.564Z,88.88
2022-11-15T19:53:57.449Z,88.94
2022-11-15T19:56:25.145Z,88.60
2022-11-15T19:58:54.907Z,88.66
2022-11-15T20:01:25.645Z,89.01
2022-11-15T20:03:54.748Z,89.09
2022-11-15T20:06:24.171Z,88.54
2022-11-15T20:08:51.451Z,88.52
2022-11-15T20:11:19.521Z,88.54
2022-11-15T20:13:47.217Z,88.61
2022-11-15T20:16:22.011Z,88.59
2022-11-15T20:18:50.479Z,88.86
2022-11-15T20:21:17.668Z,88.80
2022-11-15T20:23:45.108Z,89.01
2022-11-15T20:26:15.967Z,89.17
2022-11-15T20:28:44.947Z,88.83
2022-11-15T20:31:12.842Z,89.11
2022-11-15T20:33:40.323Z,89.40
2022-11-15T20:36:11.059Z,89.42
2022-11-15T20:38:37.839Z,89.86
2022-11-15T20:41:05.129Z,89.94
2022-11-15T20:43:32.106Z,89.88
2022-11-15T20:45:58.924Z,89.82
2022-11-15T20:48:25.858Z,89.85
2022-11-15T20:51:03.398Z,90.19
2022-11-15T20:53:31.802Z,90.81
2022-11-15T20:56:05.398Z,90.99
2022-11-15T20:58:32.737Z,91.22
2022-11-15T21:01:00.376Z,91.07
2022-11-15T21:03:27.350Z,91.15
2022-11-15T21:05:55.943Z,91.30
2022-11-15T21:08:22.925Z,91.29
2022-11-15T21:11:10.345Z,91.55
2022-11-15T21:13:38.448Z,92.00
2022-11-15T21:16:06.216Z,92.43
2022-11-15T21:18:33.519Z,92.71
2022-11-15T21:21:07.527Z,92.09
2022-11-15T21:23:34.552Z,92.04
2022-11-15T21:26:01.432Z,91.98
2022-11-15T21:28:28.440Z,91.73
2022-11-15T21:31:00.152Z,92.07
2022-11-15T21:33:27.771Z,91.92
2022-11-15T21:35:56.381Z,91.90
2022-11-15T21:38:24.555Z,91.82
2022-11-15T21:40:52.549Z,91.81
2022-11-15T21:43:20.655Z,91.62
2022-11-15T21:46:00.204Z,91.40
2022-11-15T21:48:28.886Z,91.93
2022-11-15T21:51:07.084Z,91.91
2022-11-15T21:53:37.518Z,92.11
2022-11-15T21:56:04.882Z,92.05
2022-11-15T21:58:32.079Z,92.28
2022-11-15T22:01:18.042Z,92.79
2022-11-15T22:03:45.951Z,92.38
2022-11-15T22:06:17.466Z,92.32
2022-11-15T22:08:45.888Z,92.35
2022-11-15T22:11:14.032Z,92.61
2022-11-15T22:13:41.362Z,92.47
2022-11-15T22:16:09.294Z,92.40
2022-11-15T22:18:37.639Z,91.98
2022-11-15T22:21:12.537Z,91.68
2022-11-15T22:23:40.464Z,91.96
2022-11-15T22:26:08.715Z,92.06
2022-11-15T22:28:36.525Z,92.23
2022-11-15T22:31:04.192Z,92.78
2022-11-15T22:33:32.914Z,92.99
2022-11-15T22:36:00.961Z,93.70
2022-11-15T22:38:28.473Z,93.11
2022-11-15T22:40:56.068Z,92.93
2022-11-15T22:43:25.097Z,93.03
2022-11-15T22:45:52.199Z,93.59
2022-11-15T22:48:24.590Z,93.88
2022-11-15T22:50:51.784Z,94.15
2022-11-15T22:53:19.376Z,94.54
2022-11-15T22:55:57.535Z,94.53
2022-11-15T22:58:26.622Z,93.94
2022-11-15T23:00:59.392Z,93.66
2022-11-15T23:03:27.870Z,93.75
2022-11-15T23:05:54.980Z,93.49
2022-11-15T23:08:23.420Z,93.68
2022-11-15T23:11:08.969Z,93.45
2022-11-15T23:13:35.922Z,93.52
2022-11-15T23:16:35.257Z,93.50
2022-11-15T23:19:06.566Z,93.33
2022-11-15T23:22:00.308Z,93.43
2022-11-15T23:24:27.661Z,93.47
2022-11-15T23:27:03.647Z,93.70
2022-11-15T23:29:30.827Z,93.51
2022-11-15T23:32:16.547Z,94.25
2022-11-15T23:34:45.183Z,94.41
2022-11-15T23:37:14.668Z,94.31
2022-11-15T23:39:41.575Z,93.83
2022-11-15T23:42:09.596Z,93.95
2022-11-15T23:44:37.287Z,94.32
2022-11-15T23:47:04.110Z,94.61
2022-11-15T23:49:30.969Z,94.28
2022-11-15T23:51:57.725Z,94.04
2022-11-15T23:54:24.630Z,93.89
2022-11-15T23:56:51.369Z,93.86
2022-11-15T23:59:18.545Z,93.66
